메인 페이지
METAR-TAF:

METAR-TAF

공항 :

싱가포르 창이 국제공항

싱가포르, 싱가포르

위도: 01-22N, 경도: 103-59E, 고도: 5m

현재 날씨관측

예보는 35분 전, 04:30시(UTC)에 발표되었습니다.
남서6kt풍과 풍을 오가는
온도 25°C
습도 89%
기압 1012 hPa
시정: 8000m
고도 1200ft 상공 구름 조금
고도 1800ft 상공 구름 조금, 타워링 적운.
고도 2000ft 상공 구름 조금, 적란운.
고도 16000ft 상공 구름 많음
약한비

METAR: WSSS 150430Z 22006KT 190V270 8000 -RA FEW012 FEW018TCU FEW020CB BKN160 25/23 Q1012 NOSIG

시각: 13:05 (05:05 UTC)

예보

예보는 6 시간 5분 전, 23:00시(UTC)에 발표되었습니다.
예보 대상 시간: 15일 00시부터 16일 06시까지 (UTC)
7kt
시정 10km 이상
고도 1800ft 상공 구름 조금, 적란운.
고도 2000ft 상공 구름 보통
일시적
15일 02시부터 15일 06시까지 (UTC)
시정: 3000m
고도 1200ft 상공 구름 조금, 적란운.
고도 1500ft 상공 구름 많음
뇌우, 비
일시적
15일 23시부터 16일 03시까지 (UTC)
시정: 3000m
고도 1200ft 상공 구름 조금, 적란운.
고도 1500ft 상공 구름 많음
뇌우, 비

TAF: WSSS 142300Z 1500/1606 17007KT 9999 FEW018CB SCT020 TEMPO 1502/1506 3000 TSRA FEW012CB BKN015 TEMPO 1523/1603 3000 TSRA FEW012CB BKN015

4,000개 이상의 공항 관측 자료 및 예보 (METAR 및 TAF 보고).

지도상에서 검색 가능한 기상관측소가 노란 점과 빨간 점으로 표시되어 있습니다.

기상관측소 명을 보려면 표시 위로 마우스를 이동하세요.

날씨 관측과 예보를 보려면 클릭하세요.

지도 변경 : 확대하려면 엑스 표시가 있는 녹색 버튼, 축소하려면 빼기 표시가 있는 녹색 버튼, 다음 페이지의 지도를 보려면 녹색 화살표를 클릭하세요.


METAR-TAF: